Terminal Aerodrome Forecast
Issued by NWS Sioux Falls, SD

Home | Current Version | Previous Version | Text Only | Print | Product List | Glossary Off
Versions: 1 2 3 4 5 6 7 8 9 10 11 12 13 14 15 16 17 18 19 20 21 22 23 24 25 26 27 28 29 30 31 32 33 34

000
FTUS43 KFSD 282322
TAFSUX
TAF
KSUX 282322Z 2900/2924 16013G21KT P6SM SCT035 BKN200
     FM290130 15008KT P6SM SCT060
     FM290800 14005KT 6SM -SHRA BKN040
      TEMPO 2908/2910 6SM -TSRA BKN040CB
     FM291700 19008KT P6SM -RA OVC025
     FM292200 31013KT P6SM BKN020=

USA.gov is the U.S. government's official web portal to all federal, state and local government web resources and services.